Time;durP1;ratioP1;P1;durP2;ratioP2;P2;SDS_P1;SDS_P2;PMS_P1;PMS_P2;Temp;Humidity;BMP_temperature;BMP_pressure;BME280_temperature;BME280_humidity;BME280_pressure;Samples;Min_cycle;Max_cycle;Signal;HPM_P1;HPM_P2
2021/12/09 00:03:57;;;;;;;22.13;14.13;;;5.50;99.90;;;;;;10413924;28;20225;-71
2021/12/09 00:09:03;;;;;;;29.87;17.20;;;5.40;99.90;;;;;;10412366;28;20224;-71
2021/12/09 00:14:03;;;;;;;18.47;12.93;;;5.50;99.90;;;;;;10413707;28;20856;-72
2021/12/09 00:19:04;;;;;;;17.50;10.67;;;5.50;99.90;;;;;;10413331;28;20320;-71
2021/12/09 00:24:05;;;;;;;21.87;11.67;;;5.50;99.90;;;;;;10401883;28;20213;-71
2021/12/09 00:29:07;;;;;;;14.97;10.87;;;5.50;99.90;;;;;;10410586;28;20311;-72
2021/12/09 00:34:08;;;;;;;16.17;10.83;;;5.50;99.90;;;;;;10404804;28;20602;-72
2021/12/09 00:39:12;;;;;;;17.27;11.10;;;5.50;99.90;;;;;;10406210;28;20221;-70
2021/12/09 00:44:12;;;;;;;19.10;11.70;;;5.40;99.90;;;;;;10403689;28;20232;-71
2021/12/09 00:49:13;;;;;;;14.93;10.57;;;5.40;99.90;;;;;;10409905;28;20239;-70
2021/12/09 00:54:14;;;;;;;16.53;10.47;;;5.40;99.90;;;;;;10409552;28;20252;-71
2021/12/09 00:59:15;;;;;;;16.73;10.63;;;5.30;99.90;;;;;;10398560;28;20216;-71
2021/12/09 01:04:16;;;;;;;17.70;11.57;;;5.30;99.90;;;;;;10409643;28;20786;-71
2021/12/09 01:09:17;;;;;;;15.80;10.57;;;5.30;99.90;;;;;;10408534;28;20232;-71
2021/12/09 01:14:18;;;;;;;16.27;10.33;;;5.20;99.90;;;;;;10409426;28;20294;-70
2021/12/09 01:19:21;;;;;;;13.90;9.27;;;5.10;99.90;;;;;;10408680;28;20236;-70
2021/12/09 01:24:22;;;;;;;14.03;9.53;;;5.10;99.90;;;;;;10387307;28;20255;-70
2021/12/09 01:29:32;;;;;;;12.27;8.80;;;5.00;99.90;;;;;;10397855;28;20267;-70
2021/12/09 01:34:34;;;;;;;14.40;9.73;;;4.90;99.90;;;;;;10391289;28;20243;-70
2021/12/09 01:39:38;;;;;;;15.20;10.13;;;4.80;99.90;;;;;;10408215;28;20225;-70
2021/12/09 01:44:39;;;;;;;15.40;9.90;;;4.80;99.90;;;;;;10408230;28;20228;-70
2021/12/09 01:49:39;;;;;;;15.23;10.07;;;4.70;99.90;;;;;;10403410;28;20212;-69
2021/12/09 01:54:40;;;;;;;14.63;10.20;;;4.70;99.90;;;;;;10400995;28;20310;-70
2021/12/09 01:59:41;;;;;;;15.73;10.53;;;4.60;99.90;;;;;;10403713;28;20213;-70
2021/12/09 02:04:42;;;;;;;13.57;9.97;;;4.70;99.90;;;;;;10404013;28;20319;-69
2021/12/09 02:09:43;;;;;;;10.60;8.67;;;4.70;99.90;;;;;;10411853;28;20217;-70
2021/12/09 02:14:44;;;;;;;14.60;9.57;;;4.70;99.90;;;;;;10411031;28;20247;-69
2021/12/09 02:19:45;;;;;;;14.67;10.20;;;4.70;99.90;;;;;;10398271;28;20295;-69
2021/12/09 02:24:46;;;;;;;12.30;9.33;;;4.80;99.90;;;;;;10410738;28;20228;-70
2021/12/09 02:29:46;;;;;;;14.47;10.07;;;4.70;99.90;;;;;;10407534;28;20228;-69
2021/12/09 02:34:47;;;;;;;16.17;9.70;;;4.70;99.90;;;;;;10408957;28;20299;-69
2021/12/09 02:39:48;;;;;;;14.63;9.10;;;4.60;99.90;;;;;;10409553;28;20231;-69
2021/12/09 02:44:49;;;;;;;17.77;9.37;;;4.40;99.90;;;;;;10410806;28;20216;-70
2021/12/09 02:49:50;;;;;;;20.53;9.67;;;4.20;99.90;;;;;;10419950;28;20220;-70
2021/12/09 02:54:51;;;;;;;16.13;10.30;;;4.10;99.90;;;;;;10419512;28;20762;-70
2021/12/09 02:59:52;;;;;;;18.13;10.93;;;4.00;99.90;;;;;;10416035;28;20220;-69
2021/12/09 03:04:58;;;;;;;16.23;10.30;;;3.90;99.90;;;;;;10403192;28;20247;-70
2021/12/09 03:10:04;;;;;;;15.27;10.17;;;3.80;99.90;;;;;;10415066;28;20221;-69
2021/12/09 03:15:05;;;;;;;15.90;9.13;;;3.70;99.90;;;;;;10415481;28;20243;-70
2021/12/09 03:20:11;;;;;;;16.67;10.00;;;3.80;99.90;;;;;;10411102;28;20291;-69
2021/12/09 03:25:16;;;;;;;18.63;9.87;;;3.80;99.90;;;;;;10393139;28;20193;-72
2021/12/09 03:30:19;;;;;;;16.80;9.40;;;3.90;99.90;;;;;;10413373;28;20193;-72
2021/12/09 03:35:20;;;;;;;14.13;8.77;;;4.00;99.90;;;;;;10413536;28;20238;-69
2021/12/09 03:40:20;;;;;;;14.90;8.43;;;4.10;99.90;;;;;;10412101;28;20272;-70
2021/12/09 03:45:22;;;;;;;16.63;8.93;;;4.10;99.90;;;;;;10406053;28;20202;-70
2021/12/09 03:50:22;;;;;;;12.77;7.53;;;4.10;99.90;;;;;;10415578;28;20785;-70
2021/12/09 03:55:23;;;;;;;11.17;7.20;;;4.10;99.90;;;;;;10414563;28;20328;-70
2021/12/09 04:00:26;;;;;;;15.80;8.33;;;4.10;99.90;;;;;;10404724;28;20219;-70
2021/12/09 04:05:27;;;;;;;14.37;7.13;;;4.30;99.90;;;;;;10413503;28;20568;-70
2021/12/09 04:10:28;;;;;;;11.77;7.57;;;4.40;99.90;;;;;;10414273;28;20231;-70
2021/12/09 04:15:29;;;;;;;13.67;7.20;;;4.40;99.90;;;;;;10402267;28;20319;-71
2021/12/09 04:20:30;;;;;;;11.53;6.83;;;4.50;99.90;;;;;;10411303;28;20235;-68
2021/12/09 04:25:30;;;;;;;12.53;7.10;;;4.50;99.90;;;;;;10410205;28;20228;-69
2021/12/09 04:30:34;;;;;;;12.80;6.53;;;4.60;99.90;;;;;;10400123;28;20219;-72
2021/12/09 04:35:38;;;;;;;10.37;6.10;;;4.60;99.90;;;;;;10393641;28;20224;-71
2021/12/09 04:40:38;;;;;;;14.80;6.23;;;4.60;99.90;;;;;;10409070;28;20745;-71
2021/12/09 04:45:40;;;;;;;8.67;5.87;;;4.60;99.90;;;;;;10411042;28;20236;-71
2021/12/09 04:50:42;;;;;;;11.50;6.33;;;4.60;99.90;;;;;;10410839;28;20216;-70
2021/12/09 04:55:43;;;;;;;12.33;6.60;;;4.60;99.90;;;;;;10410705;28;20225;-70
2021/12/09 05:00:44;;;;;;;10.83;5.70;;;4.60;99.90;;;;;;10411424;28;20625;-69
2021/12/09 05:05:47;;;;;;;11.87;6.23;;;4.70;99.90;;;;;;10413920;28;20217;-70
2021/12/09 05:15:55;;;;;;;13.27;6.23;;;4.70;99.90;;;;;;10410215;28;20233;-69
2021/12/09 05:20:56;;;;;;;9.13;5.87;;;4.70;99.90;;;;;;10395592;28;20223;-69
2021/12/09 05:25:57;;;;;;;12.77;6.53;;;4.70;99.90;;;;;;10411451;28;20223;-69
2021/12/09 05:36:19;;;;;;;12.07;6.40;;;4.60;99.90;;;;;;10397208;28;20240;-70
2021/12/09 05:41:19;;;;;;;14.53;7.27;;;4.50;99.90;;;;;;10410668;28;20239;-71
2021/12/09 05:46:22;;;;;;;16.70;7.00;;;4.50;99.90;;;;;;10411085;28;20217;-70
2021/12/09 05:51:24;;;;;;;10.47;6.77;;;4.40;99.90;;;;;;10408326;28;20224;-70
2021/12/09 05:56:25;;;;;;;13.70;7.33;;;4.40;99.90;;;;;;10410979;28;20315;-71
2021/12/09 06:01:26;;;;;;;14.67;6.87;;;4.40;99.90;;;;;;10410385;28;20327;-72
2021/12/09 06:06:30;;;;;;;16.70;7.47;;;4.40;99.90;;;;;;10409648;28;20693;-70
2021/12/09 06:11:31;;;;;;;35.57;18.03;;;4.40;99.90;;;;;;10392822;28;20228;-70
2021/12/09 06:16:33;;;;;;;32.07;14.03;;;4.40;99.90;;;;;;10410824;28;20240;-70
2021/12/09 06:21:34;;;;;;;29.93;16.80;;;4.30;99.90;;;;;;10407596;28;20224;-70
2021/12/09 06:26:35;;;;;;;32.87;19.27;;;4.30;99.90;;;;;;10419278;28;20696;-70
2021/12/09 06:31:35;;;;;;;17.17;10.50;;;4.40;99.90;;;;;;10421046;28;20565;-70
2021/12/09 06:36:36;;;;;;;18.10;9.03;;;4.30;99.90;;;;;;10409344;28;20816;-70
2021/12/09 06:41:40;;;;;;;17.07;7.50;;;4.20;99.90;;;;;;10418751;28;20212;-70
2021/12/09 06:46:40;;;;;;;15.40;7.43;;;4.10;99.90;;;;;;10418029;28;20282;-70
2021/12/09 06:51:41;;;;;;;11.40;7.60;;;3.90;99.90;;;;;;10418479;28;20270;-70
2021/12/09 06:56:41;;;;;;;13.40;7.67;;;3.80;99.90;;;;;;10418674;28;20232;-70
2021/12/09 07:01:42;;;;;;;18.37;8.53;;;3.90;99.90;;;;;;10415937;28;20217;-70
2021/12/09 07:06:42;;;;;;;17.83;8.20;;;3.90;99.90;;;;;;10414245;28;20216;-70
2021/12/09 07:11:50;;;;;;;11.87;7.70;;;4.00;99.90;;;;;;10417824;28;20224;-70
2021/12/09 07:16:51;;;;;;;13.80;7.90;;;4.00;99.90;;;;;;10402551;28;20236;-70
2021/12/09 07:21:52;;;;;;;16.50;8.63;;;4.00;99.90;;;;;;10415047;28;20217;-70
2021/12/09 07:26:53;;;;;;;15.17;8.37;;;4.00;99.90;;;;;;10416479;28;21033;-70
2021/12/09 07:31:54;;;;;;;15.13;8.37;;;4.00;99.90;;;;;;10408614;28;20217;-70
2021/12/09 07:36:57;;;;;;;15.63;9.47;;;3.90;99.90;;;;;;10400339;28;20272;-72
2021/12/09 07:41:59;;;;;;;17.00;8.57;;;3.80;99.90;;;;;;10400174;28;20632;-70
2021/12/09 07:47:00;;;;;;;16.93;8.57;;;3.80;99.90;;;;;;10407029;28;20217;-71
2021/12/09 07:52:01;;;;;;;15.13;7.83;;;3.80;99.90;;;;;;10414037;28;20303;-71
2021/12/09 07:57:08;;;;;;;17.87;8.00;;;3.80;99.90;;;;;;10414114;28;20996;-70
2021/12/09 08:02:09;;;;;;;16.37;8.40;;;3.90;99.90;;;;;;10413905;28;20221;-70
2021/12/09 08:07:10;;;;;;;18.17;8.90;;;4.00;99.90;;;;;;10414714;28;20220;-69
2021/12/09 08:12:11;;;;;;;17.47;7.57;;;4.20;99.90;;;;;;10414829;28;20890;-69
2021/12/09 08:22:37;;;;;;;15.13;8.00;;;4.40;99.90;;;;;;10410142;28;20598;-70
2021/12/09 08:27:38;;;;;;;14.40;7.87;;;4.60;99.90;;;;;;10422735;28;20224;-70
2021/12/09 08:32:38;;;;;;;13.90;7.47;;;4.80;99.90;;;;;;10406723;28;20579;-70
2021/12/09 08:37:39;;;;;;;15.40;6.90;;;5.00;99.90;;;;;;10413814;28;20243;-69
2021/12/09 08:42:40;;;;;;;16.30;7.47;;;5.20;99.90;;;;;;10413477;28;20224;-70
2021/12/09 08:47:42;;;;;;;14.90;7.37;;;5.40;99.90;;;;;;10413349;28;20232;-69
2021/12/09 08:52:42;;;;;;;14.87;8.00;;;5.50;99.90;;;;;;10413299;28;20281;-70
2021/12/09 08:57:43;;;;;;;11.27;6.90;;;5.40;99.90;;;;;;10411945;28;20220;-70
2021/12/09 09:02:47;;;;;;;15.90;7.97;;;5.30;99.90;;;;;;10412863;28;20224;-71
2021/12/09 09:07:50;;;;;;;13.83;8.17;;;5.20;99.90;;;;;;10410996;28;20622;-69
2021/12/09 09:12:51;;;;;;;14.40;7.77;;;5.20;99.90;;;;;;10411850;28;20244;-69
2021/12/09 09:17:54;;;;;;;15.57;7.33;;;5.20;99.90;;;;;;10406395;28;20235;-70
2021/12/09 09:22:55;;;;;;;11.77;6.87;;;5.30;99.90;;;;;;10411935;28;20298;-69
2021/12/09 09:28:00;;;;;;;15.57;6.90;;;5.40;99.90;;;;;;10410130;28;20221;-70
2021/12/09 09:33:10;;;;;;;11.83;6.17;;;5.60;99.90;;;;;;10398979;28;20658;-70
2021/12/09 09:38:11;;;;;;;13.77;6.50;;;5.80;99.90;;;;;;10414332;28;20714;-70
2021/12/09 09:43:25;;;;;;;8.10;5.07;;;5.80;99.90;;;;;;10406158;28;20221;-70
2021/12/09 09:48:26;;;;;;;9.63;5.67;;;5.80;99.90;;;;;;10412483;28;20217;-70
2021/12/09 09:53:27;;;;;;;11.23;5.67;;;5.80;99.90;;;;;;10400307;28;20220;-73
2021/12/09 09:58:28;;;;;;;12.90;7.10;;;5.80;99.90;;;;;;10419727;28;20366;-70
2021/12/09 10:03:30;;;;;;;15.37;6.83;;;5.60;99.90;;;;;;10420886;28;20303;-70
2021/12/09 10:08:33;;;;;;;11.77;7.23;;;5.50;99.90;;;;;;10420713;28;20311;-70
2021/12/09 10:13:40;;;;;;;11.33;7.07;;;5.50;99.90;;;;;;10419352;28;20216;-72
2021/12/09 10:18:45;;;;;;;10.50;6.00;;;5.50;99.90;;;;;;10394011;28;20225;-70
2021/12/09 10:23:50;;;;;;;10.73;6.07;;;5.50;99.90;;;;;;10420127;28;20213;-71
2021/12/09 10:29:03;;;;;;;10.10;6.00;;;5.50;99.90;;;;;;10418431;28;20645;-71
2021/12/09 10:34:12;;;;;;;9.13;5.27;;;5.30;99.90;;;;;;10415979;28;20213;-69
2021/12/09 10:39:28;;;;;;;13.37;6.13;;;5.30;99.90;;;;;;10419931;28;20893;-69
2021/12/09 10:44:32;;;;;;;10.80;5.67;;;5.40;99.90;;;;;;10422952;28;20220;-68
2021/12/09 10:49:40;;;;;;;10.23;5.83;;;5.50;99.90;;;;;;10419032;28;20225;-68
2021/12/09 10:54:40;;;;;;;12.63;6.70;;;5.50;99.90;;;;;;10410486;28;20263;-68
2021/12/09 10:59:41;;;;;;;15.47;7.10;;;5.60;99.90;;;;;;10417715;28;20631;-69
2021/12/09 11:05:00;;;;;;;12.80;7.13;;;5.70;99.90;;;;;;10422638;28;20715;-71
2021/12/09 11:10:20;;;;;;;10.47;7.07;;;5.90;99.90;;;;;;10429419;28;20304;-70
2021/12/09 11:15:22;;;;;;;12.70;7.30;;;6.10;99.90;;;;;;10427068;28;20600;-70
2021/12/09 11:20:43;;;;;;;12.67;7.07;;;6.10;99.90;;;;;;10409969;28;20976;-71
2021/12/09 11:25:43;;;;;;;14.80;8.50;;;6.10;99.90;;;;;;10402048;28;20213;-70
2021/12/09 11:31:11;;;;;;;14.53;7.83;;;6.10;99.90;;;;;;10418306;28;20646;-70
2021/12/09 11:36:17;;;;;;;18.73;8.47;;;6.10;99.90;;;;;;10418493;28;20663;-70
2021/12/09 11:41:34;;;;;;;16.13;7.73;;;6.20;99.90;;;;;;10417190;28;20229;-70
2021/12/09 11:46:37;;;;;;;10.40;5.77;;;6.10;99.90;;;;;;10428070;28;20216;-70
2021/12/09 11:51:39;;;;;;;13.03;5.03;;;6.20;99.90;;;;;;10423937;28;20253;-70
2021/12/09 12:07:56;;;;;;;12.57;5.07;;;6.20;99.90;;;;;;10423759;28;20220;-70
2021/12/09 12:13:03;;;;;;;15.73;5.13;;;6.10;99.90;;;;;;10393972;28;20300;-71
2021/12/09 12:29:25;;;;;;;10.07;5.60;;;5.90;99.90;;;;;;10421000;28;20251;-70
2021/12/09 12:35:08;;;;;;;14.33;7.33;;;5.90;99.90;;;;;;10411393;28;20216;-70
2021/12/09 12:40:11;;;;;;;16.47;8.27;;;5.90;99.90;;;;;;10405803;28;20224;-70
2021/12/09 12:50:35;;;;;;;16.63;8.73;;;5.90;99.90;;;;;;10410032;28;20551;-70
2021/12/09 12:55:42;;;;;;;13.00;8.60;;;6.00;99.90;;;;;;10403774;28;20250;-70
2021/12/09 13:00:48;;;;;;;16.43;8.33;;;6.10;99.90;;;;;;10412360;28;20228;-70
2021/12/09 13:16:03;;;;;;;13.90;7.43;;;6.40;99.90;;;;;;10395789;28;20327;-70
2021/12/09 13:21:38;;;;;;;16.70;8.00;;;6.40;99.90;;;;;;10408263;28;20627;-71
2021/12/09 13:27:30;;;;;;;16.90;7.77;;;6.50;99.90;;;;;;10398855;28;20258;-70
2021/12/09 13:32:55;;;;;;;16.50;7.30;;;6.50;99.90;;;;;;10391679;28;20254;-70
2021/12/09 13:49:07;;;;;;;13.97;7.07;;;6.10;99.90;;;;;;10408589;28;20225;-72
2021/12/09 13:54:22;;;;;;;10.07;6.53;;;6.00;99.90;;;;;;10389540;28;20221;-70
2021/12/09 13:59:26;;;;;;;19.53;6.63;;;6.00;99.90;;;;;;10387990;28;20266;-71
2021/12/09 14:04:36;;;;;;;15.37;6.27;;;5.90;99.90;;;;;;10388947;28;20210;-70
2021/12/09 14:09:40;;;;;;;10.63;6.10;;;5.90;99.90;;;;;;10403439;28;20272;-71
2021/12/09 14:15:01;;;;;;;14.87;6.57;;;5.80;99.90;;;;;;10407795;28;20714;-70
2021/12/09 14:20:03;;;;;;;13.70;6.60;;;5.80;99.90;;;;;;10393133;28;20255;-72
2021/12/09 14:25:10;;;;;;;13.77;7.30;;;5.80;99.90;;;;;;10409475;28;20227;-70
2021/12/09 14:30:13;;;;;;;16.27;7.60;;;5.80;99.90;;;;;;10411497;28;20219;-70
2021/12/09 14:35:25;;;;;;;14.63;6.90;;;5.80;99.90;;;;;;10408644;28;20208;-71
2021/12/09 14:40:34;;;;;;;11.07;7.17;;;5.80;99.90;;;;;;10398189;28;20217;-71
2021/12/09 14:45:38;;;;;;;11.20;6.80;;;5.80;99.90;;;;;;10409450;28;20223;-71
2021/12/09 14:50:41;;;;;;;13.40;6.03;;;5.70;99.90;;;;;;10410026;28;20241;-71
2021/12/09 14:55:45;;;;;;;14.30;6.43;;;5.70;99.90;;;;;;10423200;28;20224;-70
2021/12/09 15:01:03;;;;;;;15.23;7.13;;;5.70;99.90;;;;;;10395591;28;20217;-70
2021/12/09 15:06:06;;;;;;;13.13;7.00;;;5.70;99.90;;;;;;10411607;28;20232;-71
2021/12/09 15:11:10;;;;;;;9.97;5.10;;;5.60;99.90;;;;;;10418979;28;20267;-70
2021/12/09 15:16:15;;;;;;;17.23;5.70;;;5.60;99.90;;;;;;10414644;28;20938;-71
2021/12/09 15:21:30;;;;;;;11.70;5.93;;;5.60;99.90;;;;;;10409753;28;20243;-71
2021/12/09 15:26:35;;;;;;;15.47;6.30;;;5.60;99.90;;;;;;10414855;28;20212;-70
2021/12/09 15:31:40;;;;;;;12.47;5.20;;;5.60;99.90;;;;;;10394013;28;20270;-71
2021/12/09 15:36:53;;;;;;;11.80;7.07;;;5.60;99.90;;;;;;10399545;28;20316;-70
2021/12/09 15:42:09;;;;;;;13.17;7.10;;;5.60;99.90;;;;;;10400166;28;20267;-69
2021/12/09 15:47:28;;;;;;;15.03;7.30;;;5.60;99.90;;;;;;10394207;28;20572;-71
2021/12/09 15:52:43;;;;;;;13.60;5.97;;;5.60;99.90;;;;;;10413235;28;20247;-70
2021/12/09 15:57:46;;;;;;;14.70;5.93;;;5.60;99.90;;;;;;10390176;28;20231;-70
2021/12/09 16:02:47;;;;;;;12.47;5.57;;;5.60;99.90;;;;;;10412828;28;20243;-70
2021/12/09 16:07:51;;;;;;;10.27;5.67;;;5.60;99.90;;;;;;10412884;28;20223;-71
2021/12/09 16:12:52;;;;;;;10.57;4.97;;;5.60;99.90;;;;;;10401977;28;20263;-71
2021/12/09 16:17:55;;;;;;;12.33;5.90;;;5.60;99.90;;;;;;10411868;28;20293;-71
2021/12/09 16:22:55;;;;;;;16.43;5.27;;;5.60;99.90;;;;;;10415398;28;20907;-70
2021/12/09 16:27:56;;;;;;;13.77;6.47;;;5.60;99.90;;;;;;10415839;28;20251;-71
2021/12/09 16:32:58;;;;;;;12.73;4.90;;;5.60;99.90;;;;;;10413835;28;20221;-70
2021/12/09 16:37:59;;;;;;;15.47;4.83;;;5.60;99.90;;;;;;10410510;28;20243;-70
2021/12/09 16:43:01;;;;;;;11.10;4.43;;;5.60;99.90;;;;;;10412202;28;20232;-71
2021/12/09 16:48:06;;;;;;;11.50;4.60;;;5.60;99.90;;;;;;10411065;28;20299;-71
2021/12/09 16:53:13;;;;;;;13.07;4.50;;;5.60;99.90;;;;;;10424333;28;20248;-71
2021/12/09 16:58:15;;;;;;;18.13;4.30;;;5.60;99.90;;;;;;10415054;28;20294;-70
2021/12/09 17:03:16;;;;;;;10.37;4.03;;;5.50;99.90;;;;;;10412117;28;20224;-72
2021/12/09 17:08:17;;;;;;;13.17;4.07;;;5.50;99.90;;;;;;10413937;28;20274;-73
2021/12/09 17:13:17;;;;;;;13.83;4.97;;;5.40;99.90;;;;;;10419220;28;20278;-70
2021/12/09 17:18:18;;;;;;;15.50;4.63;;;5.40;99.90;;;;;;10415994;28;20236;-71
2021/12/09 17:23:19;;;;;;;15.00;4.50;;;5.50;99.90;;;;;;10405842;28;20616;-71
2021/12/09 17:28:21;;;;;;;11.73;4.67;;;5.50;99.90;;;;;;10381920;28;20225;-72
2021/12/09 17:33:28;;;;;;;16.27;4.83;;;5.50;99.90;;;;;;10407853;28;20235;-71
2021/12/09 17:38:29;;;;;;;13.43;4.90;;;5.50;99.90;;;;;;10377807;28;20225;-71
2021/12/09 17:43:30;;;;;;;9.87;4.70;;;5.50;99.90;;;;;;10403020;28;20617;-71
2021/12/09 17:48:32;;;;;;;13.03;4.47;;;5.50;99.90;;;;;;10414331;28;20731;-72
2021/12/09 17:53:33;;;;;;;9.97;4.97;;;5.40;99.90;;;;;;10417318;28;20714;-72
2021/12/09 17:58:34;;;;;;;16.27;3.87;;;5.40;99.90;;;;;;10406497;28;20340;-72
2021/12/09 18:03:35;;;;;;;10.70;4.00;;;5.30;99.90;;;;;;10397916;28;20337;-71
2021/12/09 18:08:36;;;;;;;13.83;4.60;;;5.20;99.90;;;;;;10400030;28;20220;-70
2021/12/09 18:13:37;;;;;;;12.70;4.53;;;5.20;99.90;;;;;;10405570;28;20223;-71
2021/12/09 18:18:39;;;;;;;8.73;4.50;;;5.10;99.90;;;;;;10410264;28;20243;-71
2021/12/09 18:23:39;;;;;;;13.40;4.57;;;5.10;99.90;;;;;;10413484;28;20221;-70
2021/12/09 18:28:40;;;;;;;18.67;5.50;;;5.10;99.90;;;;;;10414289;28;20220;-71
2021/12/09 18:34:34;;;;;;;12.27;5.40;;;5.10;99.90;;;;;;10414312;28;20227;-71
2021/12/09 18:39:38;;;;;;;18.83;6.17;;;5.10;99.90;;;;;;10419354;28;20227;-72
2021/12/09 18:44:38;;;;;;;14.43;5.30;;;5.20;99.90;;;;;;10406752;28;20255;-72
2021/12/09 18:49:39;;;;;;;13.40;5.30;;;5.20;99.90;;;;;;10400046;28;20232;-71
2021/12/09 18:54:40;;;;;;;13.47;5.03;;;5.20;99.90;;;;;;10414702;28;20221;-71
2021/12/09 18:59:41;;;;;;;11.50;5.17;;;5.20;99.90;;;;;;10413872;28;20676;-71
2021/12/09 19:04:42;;;;;;;14.57;4.63;;;5.20;99.90;;;;;;10415319;28;20220;-71
2021/12/09 19:09:43;;;;;;;10.00;4.23;;;5.20;99.90;;;;;;10421817;28;20252;-72
2021/12/09 19:14:43;;;;;;;16.43;4.60;;;5.20;99.90;;;;;;10431221;28;20224;-72
2021/12/09 19:19:44;;;;;;;11.93;4.60;;;5.20;99.90;;;;;;10425308;28;20220;-73
2021/12/09 19:24:45;;;;;;;11.73;4.30;;;5.20;99.90;;;;;;10405711;28;20217;-71
2021/12/09 19:29:49;;;;;;;13.30;4.23;;;5.20;99.90;;;;;;10412135;28;20219;-72
2021/12/09 19:34:54;;;;;;;13.30;5.40;;;5.20;99.90;;;;;;10423149;28;20224;-73
2021/12/09 19:39:55;;;;;;;11.20;4.23;;;5.20;99.90;;;;;;10407715;28;20216;-73
2021/12/09 19:44:59;;;;;;;10.43;4.60;;;5.20;99.90;;;;;;10418936;28;20227;-73
2021/12/09 19:50:00;;;;;;;7.43;3.80;;;5.30;99.90;;;;;;10426360;28;20227;-72
2021/12/09 19:55:01;;;;;;;10.20;3.63;;;5.30;99.90;;;;;;10421409;28;20700;-72
2021/12/09 20:00:04;;;;;;;10.03;3.47;;;5.30;99.90;;;;;;10415538;28;20221;-73
2021/12/09 20:05:07;;;;;;;12.57;5.73;;;5.30;99.90;;;;;;10401003;28;20301;-72
2021/12/09 20:10:19;;;;;;;10.10;4.30;;;5.30;99.90;;;;;;10419394;28;20189;-72
2021/12/09 20:15:20;;;;;;;8.43;3.90;;;5.30;99.90;;;;;;10414575;28;20213;-72
2021/12/09 20:20:21;;;;;;;9.07;4.10;;;5.30;99.90;;;;;;10415899;28;20631;-73
2021/12/09 20:25:22;;;;;;;10.27;5.17;;;5.30;99.90;;;;;;10407271;28;20219;-73
2021/12/09 20:30:25;;;;;;;9.73;4.00;;;5.20;99.90;;;;;;10414559;28;20681;-73
2021/12/09 20:35:27;;;;;;;14.00;5.77;;;5.20;99.90;;;;;;10410956;28;20303;-72
2021/12/09 20:40:28;;;;;;;7.10;3.50;;;5.20;99.90;;;;;;10400659;28;20219;-72
2021/12/09 20:45:29;;;;;;;9.13;5.23;;;5.20;99.90;;;;;;10388193;28;20219;-71
2021/12/09 20:50:33;;;;;;;10.33;5.73;;;5.10;99.90;;;;;;10389174;28;20223;-71
2021/12/09 20:55:36;;;;;;;9.60;3.87;;;5.20;99.90;;;;;;10412617;28;20223;-72
2021/12/09 21:00:39;;;;;;;11.90;6.73;;;5.10;99.90;;;;;;10407245;28;20240;-72
2021/12/09 21:05:40;;;;;;;10.40;4.17;;;5.10;99.90;;;;;;10420489;28;20826;-72
2021/12/09 21:10:45;;;;;;;8.00;3.70;;;5.10;99.90;;;;;;10416198;28;20278;-71
2021/12/09 21:15:48;;;;;;;7.43;4.03;;;5.10;99.90;;;;;;10409194;28;20300;-73
2021/12/09 21:20:52;;;;;;;5.90;3.10;;;5.10;99.90;;;;;;10394705;28;20225;-73
2021/12/09 21:25:54;;;;;;;10.40;4.07;;;5.10;99.90;;;;;;10415706;28;20213;-71
2021/12/09 21:30:56;;;;;;;7.80;4.00;;;5.10;99.90;;;;;;10414956;28;20233;-72
2021/12/09 21:36:00;;;;;;;11.83;4.57;;;5.10;99.90;;;;;;10402369;28;20221;-72
2021/12/09 21:41:06;;;;;;;6.17;3.60;;;5.00;99.90;;;;;;10397321;28;20221;-71
2021/12/09 21:46:06;;;;;;;8.70;3.80;;;5.00;99.90;;;;;;10384036;28;20225;-72
2021/12/09 21:51:08;;;;;;;8.73;4.23;;;5.00;99.90;;;;;;10400313;28;20311;-71
2021/12/09 21:56:08;;;;;;;9.87;4.00;;;5.00;99.90;;;;;;10412654;28;20246;-73
2021/12/09 22:01:10;;;;;;;10.00;4.20;;;5.00;99.90;;;;;;10413234;28;20220;-72
2021/12/09 22:06:11;;;;;;;10.67;4.10;;;5.00;99.90;;;;;;10395921;28;20304;-72
2021/12/09 22:11:14;;;;;;;9.73;4.30;;;5.00;99.90;;;;;;10410752;28;20231;-71
2021/12/09 22:16:19;;;;;;;8.27;4.30;;;5.00;99.90;;;;;;10411971;28;20264;-73
2021/12/09 22:21:23;;;;;;;11.97;3.83;;;5.00;99.90;;;;;;10411409;28;20228;-72
2021/12/09 22:26:24;;;;;;;9.20;4.20;;;5.00;99.90;;;;;;10411091;28;20217;-72
2021/12/09 22:31:24;;;;;;;11.13;4.80;;;5.00;99.90;;;;;;10411299;28;20311;-72
2021/12/09 22:36:25;;;;;;;9.60;4.27;;;5.00;99.90;;;;;;10403276;28;20312;-71
2021/12/09 22:41:26;;;;;;;6.97;3.33;;;5.00;99.90;;;;;;10409311;28;20364;-71
2021/12/09 22:46:27;;;;;;;12.23;4.27;;;5.00;99.90;;;;;;10410534;28;20219;-71
2021/12/09 22:51:28;;;;;;;7.03;3.30;;;4.90;99.90;;;;;;10410033;28;20231;-72
2021/12/09 22:56:29;;;;;;;7.93;3.97;;;4.90;99.90;;;;;;10411666;28;20267;-71
2021/12/09 23:01:33;;;;;;;7.50;3.17;;;4.90;99.90;;;;;;10411870;28;20594;-72
2021/12/09 23:06:35;;;;;;;10.07;4.03;;;4.90;99.90;;;;;;10416315;28;20224;-71
2021/12/09 23:11:41;;;;;;;9.17;3.30;;;4.90;99.90;;;;;;10415645;28;20718;-71
2021/12/09 23:16:46;;;;;;;10.33;3.50;;;4.80;99.90;;;;;;10393998;28;20230;-76
2021/12/09 23:21:48;;;;;;;8.43;3.30;;;4.80;99.90;;;;;;10410805;28;20366;-71
2021/12/09 23:26:49;;;;;;;22.40;11.50;;;4.70;99.90;;;;;;10406562;28;20228;-71
2021/12/09 23:31:49;;;;;;;7.20;4.23;;;4.70;99.90;;;;;;10404793;28;20287;-73
2021/12/09 23:36:51;;;;;;;7.70;4.00;;;4.70;99.90;;;;;;10415994;28;20229;-72
2021/12/09 23:41:51;;;;;;;10.80;4.20;;;4.70;99.90;;;;;;10415436;28;20221;-71
2021/12/09 23:46:52;;;;;;;11.50;4.83;;;4.70;99.90;;;;;;10406204;28;20307;-71
2021/12/09 23:51:55;;;;;;;10.20;5.03;;;4.70;99.90;;;;;;10404577;28;20782;-71
2021/12/09 23:56:57;;;;;;;13.93;4.50;;;4.70;99.90;;;;;;10433433;28;20277;-72
